KDUH

Details ICAO KDUH
Name TOLEDO SUBURBAN
Region United States
Timezone America/Detroit (UTC-4.0)
Plans Departing 5
Arriving 0
Stats Elevation 669 ft / 204 m (AMSL)
Location 41.735880° -83.655410°
Runways 1
Magnetic Variation 6.989° W
Sunrise 2018-05-20 10:11:42 UTC / 2018-05-20 06:11:42 Local
Sunset 2018-05-21 00:53:28 UTC / 2018-05-20 20:53:28 Local
Advertisement - Login to hide

Runways

ID Width Length Bearing (true) Bearing (mag) Surface Threshold Offset Overrun Length
09 50 ft / 15 m 5,000 ft / 1,524 m 86.87° 93.86° Asphalt 1,274 ft / 388 m 0 ft / 0 m
27 50 ft / 15 m 5,000 ft / 1,524 m 266.88° 273.87° Asphalt 1,200 ft / 366 m 0 ft / 0 m

Map

Weather


0- 5 10 15 20 25 30 35+ Temperature / ° C

Clouds and Precipitation
Forecast for 2018-05-20 12:00 UTC. Updated an hour ago

Ground ~20,000 ft ~40,000 ft Winds

METAR

KDUH 201035Z AUTO 00000KT 7SM SCT007 OVC012 16/14 A3005 RMK AO2 T01610140

TAF

Not found

Frequencies

Recorded 119.17 MHz AWOS 3
Approach 134.35 MHz APP/DEP
Unicom 122.70 MHz CTAF/UNICOM
Warning: Do not use this data for real-world aviation or navigation. No guarantee of current accuracy is given.